Bondville, VT (05340)

10:39 PM EDT on August 04, 2015 (GMT -0400)
half way up Stratton Mountain | | Change Station
CLOSE
Current Station
Personal Weather Station
Location: Bondville, VT
Elevation: 2550 ft
Nearby Weather Stations

Elev 2550 ft 43.11 °N, 72.92 °W | Updated 3 seconds ago

Partly Cloudy
Partly Cloudy
59.6 °F
Feels Like 59.6 °F
N
5.0
Wind Variable Wind from West
Gusts 14.0 mph

Today
High -- | Low -- °F
--% Chance of Precip.
Yesterday
High -- | Low -- °F
Precip. -- in
5:44 AM 8:09 PM
Waning Gibbous, 72% visible
Pressure 29.91 in
Visibility 0.2 miles
Clouds
Dew Point 53 °F
Humidity 80%
Rainfall 0.05 in
Snow Depth Not available.
UV Not available.
Pollen 7.40 out of 12
Air Quality Not available.
Flu Activity Not available.
SPECI KVSF 050231Z AUTO 00000KT 1/4SM FG VV002 17/16 A2991 RMK AO2 T01670161

More Conditions Fewer Conditions

Pressure 29.91 in
Visibility 0.2 miles
Clouds
Dew Point 53 °F
Humidity 80%
Rainfall 0.05 in
Snow Depth Not available.
UV Not available.
Pollen 7.40 out of 12
Air Quality Not available.
Flu Activity Not available.
SPECI KVSF 050231Z AUTO 00000KT 1/4SM FG VV002 17/16 A2991 RMK AO2 T01670161

More Conditions Fewer Conditions

10-Day Weather Forecast

×

Almanac

Astronomy

Aug. 04, 2015 Rise Set
Actual Time
Civil Twilight
Nautical Twilight
Astronomical Twilight
Moon
Length of Visible Light
Length of Day
Tomorrow will be .
, % of the Moon is Illuminated

Today's Extremes

State Highs State Lows

Community

WunderPhotos

Upload Photos

1,844,087 photos uploaded!

WunderBlogs® & News

Nearby

Air Quality

  Air Quality AQ Index Pollutant
Not available.

Snow Depth

Station Depth Elevation

Earthquake Activity

City Distance Mag. Time & Date
Minimum magnitude displayed is 2.5.

Coastal Water Temperatures

Place Temperature

Stations

Nearby Weather Stations

Station Location Temp. Windchill Dew Point Humidity Wind Precip. Elev Updated Type